createdAt,value
2019-04-09T00:02:31.746Z,60.77
2019-04-09T00:05:02.685Z,60.20
2019-04-09T00:07:32.320Z,52.60
2019-04-09T00:10:02.803Z,61.93
2019-04-09T00:12:33.851Z,61.27
2019-04-09T00:15:05.038Z,54.53
2019-04-09T00:17:35.973Z,54.53
2019-04-09T00:20:06.997Z,60.43
2019-04-09T00:22:37.434Z,72.93
2019-04-09T00:25:08.423Z,56.93
2019-04-09T00:27:39.137Z,62.57
2019-04-09T00:30:11.966Z,74.33
2019-04-09T00:32:41.828Z,57.03
2019-04-09T00:35:13.105Z,59.67
2019-04-09T00:37:43.884Z,59.27
2019-04-09T00:40:15.437Z,67.10
2019-04-09T00:42:45.945Z,63.03
2019-04-09T00:45:16.400Z,60.63
2019-04-09T00:47:46.881Z,72.33
2019-04-09T00:50:17.314Z,61.07
2019-04-09T00:52:47.768Z,64.27
2019-04-09T00:55:19.023Z,57.47
2019-04-09T00:57:49.628Z,58.07
2019-04-09T01:00:25.170Z,51.10
2019-04-09T01:02:55.804Z,62.33
2019-04-09T01:05:27.194Z,69.70
2019-04-09T01:07:57.668Z,63.97
2019-04-09T01:10:28.115Z,54.00
2019-04-09T01:12:58.558Z,62.80
2019-04-09T01:15:29.003Z,55.93
2019-04-09T01:18:00.620Z,55.17
2019-04-09T01:20:31.815Z,50.00
2019-04-09T01:23:02.403Z,49.13
2019-04-09T01:25:42.152Z,60.03
2019-04-09T01:28:20.320Z,54.53
2019-04-09T01:30:59.275Z,44.57
2019-04-09T01:33:36.679Z,57.70
2019-04-09T01:36:35.316Z,41.87
2019-04-09T01:39:29.780Z,52.70
2019-04-09T01:42:11.409Z,52.17
2019-04-09T01:45:05.761Z,50.13
2019-04-09T01:47:55.527Z,50.53
2019-04-09T01:50:36.247Z,53.17
2019-04-09T01:53:15.967Z,43.27
2019-04-09T01:55:55.732Z,51.87
2019-04-09T01:58:35.777Z,42.60
2019-04-09T02:01:16.216Z,39.60
2019-04-09T02:04:20.949Z,49.83
2019-04-09T02:07:08.979Z,60.13
2019-04-09T02:10:02.579Z,51.70
2019-04-09T02:12:52.077Z,58.83
2019-04-09T02:15:50.577Z,57.00
2019-04-09T02:18:48.805Z,50.27
2019-04-09T02:21:24.679Z,63.07
2019-04-09T02:24:05.229Z,49.83
2019-04-09T02:27:03.847Z,46.13
2019-04-09T02:30:06.475Z,42.87
2019-04-09T02:32:52.728Z,46.13
2019-04-09T02:35:41.426Z,46.63
2019-04-09T02:38:37.767Z,51.57
2019-04-09T02:41:25.895Z,51.40
2019-04-09T02:44:19.040Z,57.30
2019-04-09T02:47:09.400Z,66.87
2019-04-09T02:49:45.660Z,57.60
2019-04-09T02:52:35.942Z,57.00
2019-04-09T02:55:31.122Z,48.67
2019-04-09T02:58:26.926Z,50.37
2019-04-09T03:01:05.334Z,55.70
2019-04-09T03:03:58.033Z,69.40
2019-04-09T03:06:44.850Z,54.33
2019-04-09T03:09:45.520Z,51.90
2019-04-09T03:12:37.623Z,53.63
2019-04-09T03:15:17.809Z,53.90
2019-04-09T03:18:23.044Z,53.43
2019-04-09T03:21:07.735Z,50.37
2019-04-09T03:23:45.678Z,52.93
2019-04-09T03:26:52.204Z,59.67
2019-04-09T03:29:35.437Z,45.83
2019-04-09T03:32:24.147Z,63.10
2019-04-09T03:35:13.455Z,51.40
2019-04-09T03:38:06.121Z,55.80
2019-04-09T03:40:54.040Z,48.67
2019-04-09T03:43:44.154Z,58.87
2019-04-09T03:46:29.948Z,50.67
2019-04-09T03:49:34.618Z,57.30
2019-04-09T03:52:39.187Z,69.27
2019-04-09T03:55:18.241Z,66.17
2019-04-09T03:58:21.170Z,84.70
2019-04-09T04:01:08.103Z,93.37
2019-04-09T04:03:57.215Z,79.43
2019-04-09T04:06:38.544Z,69.10
2019-04-09T04:09:23.133Z,70.67
2019-04-09T04:11:59.315Z,91.43
2019-04-09T04:14:47.357Z,77.80
2019-04-09T04:17:48.948Z,72.27
2019-04-09T04:20:45.721Z,78.03
2019-04-09T04:23:35.473Z,65.80
2019-04-09T04:26:24.756Z,73.10
2019-04-09T04:29:12.981Z,75.67
2019-04-09T04:32:03.100Z,67.50
2019-04-09T04:34:55.250Z,60.17
2019-04-09T04:37:39.829Z,69.23
2019-04-09T04:40:32.239Z,84.23
2019-04-09T04:43:36.639Z,66.50
2019-04-09T04:46:41.884Z,56.90
2019-04-09T04:49:41.358Z,74.37
2019-04-09T04:52:21.880Z,76.30
2019-04-09T04:55:00.167Z,63.20
2019-04-09T04:57:52.262Z,94.57
2019-04-09T05:00:29.048Z,71.33
2019-04-09T05:03:11.739Z,69.53
2019-04-09T05:05:58.265Z,84.97
2019-04-09T05:08:36.279Z,66.03
2019-04-09T05:11:26.746Z,72.23
2019-04-09T05:14:28.403Z,65.53
2019-04-09T05:17:22.613Z,67.20
2019-04-09T05:20:15.218Z,73.20
2019-04-09T05:22:58.532Z,78.73
2019-04-09T05:25:47.816Z,62.40
2019-04-09T05:28:51.565Z,70.37
2019-04-09T05:31:31.296Z,67.70
2019-04-09T05:34:21.173Z,71.00
2019-04-09T05:37:17.369Z,74.50
2019-04-09T05:40:09.626Z,64.83
2019-04-09T05:42:47.703Z,64.83
2019-04-09T05:45:27.428Z,59.30
2019-04-09T05:48:21.790Z,59.93
2019-04-09T05:51:17.232Z,66.50
2019-04-09T05:54:13.452Z,69.00
2019-04-09T05:56:54.910Z,68.27
2019-04-09T05:59:51.205Z,95.00
2019-04-09T06:02:36.144Z,90.93
2019-04-09T06:05:17.535Z,109.40
2019-04-09T06:08:07.338Z,106.00
2019-04-09T06:10:38.850Z,106.13
2019-04-09T06:13:09.368Z,98.73
2019-04-09T06:15:39.840Z,104.53
2019-04-09T06:18:10.316Z,92.53
2019-04-09T06:20:40.776Z,102.77
2019-04-09T06:23:12.000Z,100.30
2019-04-09T06:25:42.643Z,71.23
2019-04-09T06:28:14.201Z,75.97
2019-04-09T06:30:46.017Z,89.77
2019-04-09T06:33:25.976Z,78.63
2019-04-09T06:36:06.139Z,70.50
2019-04-09T06:39:00.675Z,79.77
2019-04-09T06:41:53.026Z,76.30
2019-04-09T06:44:33.639Z,90.83
2019-04-09T06:47:41.053Z,73.80
2019-04-09T06:50:25.675Z,82.07
2019-04-09T06:53:05.364Z,74.97
2019-04-09T06:55:42.887Z,76.13
2019-04-09T06:58:31.445Z,69.67
2019-04-09T07:01:20.758Z,71.93
2019-04-09T07:04:10.051Z,67.37
2019-04-09T07:07:11.505Z,57.10
2019-04-09T07:10:18.957Z,82.70
2019-04-09T07:13:27.390Z,83.73
2019-04-09T07:16:14.963Z,73.23
2019-04-09T07:18:57.802Z,76.83
2019-04-09T07:21:34.318Z,80.40
2019-04-09T07:24:33.112Z,66.70
2019-04-09T07:27:21.281Z,70.77
2019-04-09T07:30:20.294Z,85.00
2019-04-09T07:33:01.725Z,73.20
2019-04-09T07:35:50.744Z,88.83
2019-04-09T07:38:45.282Z,93.90
2019-04-09T07:41:41.444Z,105.80
2019-04-09T07:44:31.987Z,87.70
2019-04-09T07:47:34.698Z,98.07
2019-04-09T07:50:16.442Z,99.60
2019-04-09T07:53:06.493Z,94.63
2019-04-09T07:55:54.350Z,84.47
2019-04-09T07:58:39.746Z,99.73
2019-04-09T08:01:31.656Z,86.70
2019-04-09T08:04:19.380Z,86.97
2019-04-09T08:07:07.764Z,96.30
2019-04-09T08:10:00.286Z,89.67
2019-04-09T08:12:49.261Z,97.90
2019-04-09T08:15:38.377Z,94.83
2019-04-09T08:18:25.472Z,95.67
2019-04-09T08:21:18.091Z,102.93
2019-04-09T08:24:26.162Z,86.90
2019-04-09T08:27:10.754Z,91.90
2019-04-09T08:29:59.417Z,87.67
2019-04-09T08:32:49.652Z,84.43
2019-04-09T08:35:26.322Z,83.50
2019-04-09T08:38:34.900Z,90.17
2019-04-09T08:41:24.956Z,90.47
2019-04-09T08:44:14.437Z,79.77
2019-04-09T08:47:11.018Z,84.07
2019-04-09T08:50:06.212Z,87.33
2019-04-09T08:52:44.662Z,79.20
2019-04-09T08:55:24.067Z,92.23
2019-04-09T08:57:58.523Z,92.37
2019-04-09T09:01:19.171Z,92.80
2019-04-09T09:03:27.658Z,100.20
2019-04-09T09:06:15.518Z,92.67
2019-04-09T09:09:14.026Z,100.27
2019-04-09T09:12:07.994Z,89.40
2019-04-09T09:14:55.151Z,86.27
2019-04-09T09:17:47.198Z,105.73
2019-04-09T09:20:35.457Z,95.83
2019-04-09T09:23:23.732Z,80.83
2019-04-09T09:26:06.759Z,103.67
2019-04-09T09:28:47.701Z,98.80
2019-04-09T09:31:43.601Z,93.17
2019-04-09T09:34:33.094Z,86.03
2019-04-09T09:37:21.377Z,91.40
2019-04-09T09:40:14.147Z,80.20
2019-04-09T09:43:03.598Z,95.93
2019-04-09T09:45:53.756Z,96.80
2019-04-09T09:48:44.308Z,83.77
2019-04-09T09:51:50.532Z,86.97
2019-04-09T09:54:39.615Z,78.97
2019-04-09T09:57:43.665Z,88.70
2019-04-09T10:00:31.661Z,97.40
2019-04-09T10:03:21.917Z,86.63
2019-04-09T10:05:59.786Z,73.13
2019-04-09T10:08:56.230Z,86.83
2019-04-09T10:11:42.567Z,86.87
2019-04-09T10:14:20.006Z,88.37
2019-04-09T10:17:10.458Z,93.10
2019-04-09T10:19:50.597Z,83.87
2019-04-09T10:22:29.471Z,89.93
2019-04-09T10:25:13.452Z,98.63
2019-04-09T10:28:22.843Z,97.73
2019-04-09T10:31:19.115Z,94.70
2019-04-09T10:34:03.839Z,95.03
2019-04-09T10:36:55.888Z,98.73
2019-04-09T10:39:51.559Z,102.73
2019-04-09T10:42:40.950Z,95.40
2019-04-09T10:45:24.092Z,91.87
2019-04-09T10:48:20.449Z,103.00
2019-04-09T10:51:12.974Z,109.80
2019-04-09T10:53:59.291Z,104.50
2019-04-09T10:56:51.485Z,99.73
2019-04-09T10:59:45.098Z,109.07
2019-04-09T11:02:30.706Z,87.90
2019-04-09T11:05:28.503Z,100.40
2019-04-09T11:08:09.883Z,89.87
2019-04-09T11:11:18.271Z,100.83
2019-04-09T11:14:16.783Z,101.33
2019-04-09T11:16:50.514Z,99.77
2019-04-09T11:19:43.452Z,99.83
2019-04-09T11:22:33.006Z,96.93
2019-04-09T11:25:34.815Z,98.03
2019-04-09T11:28:28.415Z,81.77
2019-04-09T11:31:16.389Z,96.93
2019-04-09T11:33:55.700Z,101.80
2019-04-09T11:36:51.679Z,95.20
2019-04-09T11:39:48.300Z,99.23
2019-04-09T11:42:27.746Z,98.07
2019-04-09T11:45:09.273Z,86.73
2019-04-09T11:47:57.359Z,100.50
2019-04-09T11:51:05.533Z,99.70
2019-04-09T11:53:54.455Z,101.60
2019-04-09T11:56:49.219Z,101.60
2019-04-09T11:59:41.566Z,106.73
2019-04-09T12:02:23.688Z,91.63
2019-04-09T12:05:22.507Z,103.13
2019-04-09T12:08:24.504Z,101.00
2019-04-09T12:11:30.099Z,89.57
2019-04-09T12:14:38.327Z,99.77
2019-04-09T12:17:34.461Z,84.80
2019-04-09T12:20:24.932Z,96.77
2019-04-09T12:23:07.912Z,99.63
2019-04-09T12:25:56.212Z,105.47
2019-04-09T12:29:08.613Z,91.03
2019-04-09T12:31:54.532Z,87.37
2019-04-09T12:34:50.736Z,87.43
2019-04-09T12:37:52.151Z,84.63
2019-04-09T12:40:39.501Z,77.20
2019-04-09T12:43:29.323Z,78.43
2019-04-09T12:46:25.179Z,84.13
2019-04-09T12:49:21.155Z,82.43
2019-04-09T12:52:09.307Z,74.80
2019-04-09T12:55:04.650Z,82.90
2019-04-09T12:57:54.389Z,82.30
2019-04-09T13:00:44.418Z,88.77
2019-04-09T13:03:34.095Z,83.40
2019-04-09T13:06:15.708Z,79.30
2019-04-09T13:09:11.873Z,75.60
2019-04-09T13:12:13.287Z,85.47
2019-04-09T13:15:12.319Z,82.07
2019-04-09T13:18:00.562Z,77.13
2019-04-09T13:20:40.150Z,79.30
2019-04-09T13:23:33.985Z,79.33
2019-04-09T13:26:19.814Z,79.20
2019-04-09T13:29:03.008Z,90.90
2019-04-09T13:31:52.899Z,75.07
2019-04-09T13:34:57.798Z,71.53
2019-04-09T13:37:53.120Z,91.90
2019-04-09T13:40:49.290Z,83.97
2019-04-09T13:43:54.517Z,83.40
2019-04-09T13:46:44.656Z,75.83
2019-04-09T13:49:23.121Z,71.40
2019-04-09T13:52:13.041Z,68.07
2019-04-09T13:54:43.903Z,76.40
2019-04-09T13:57:14.427Z,75.67
2019-04-09T13:59:44.914Z,80.73
2019-04-09T14:02:15.401Z,82.90
2019-04-09T14:04:58.086Z,72.43
2019-04-09T14:07:28.571Z,91.00
2019-04-09T14:09:59.036Z,71.40
2019-04-09T14:12:29.543Z,72.67
2019-04-09T14:15:00.767Z,76.20
2019-04-09T14:17:31.612Z,78.43
2019-04-09T14:20:03.447Z,78.80
2019-04-09T14:22:35.398Z,92.33
2019-04-09T14:25:07.453Z,83.97
2019-04-09T14:27:39.215Z,67.20
2019-04-09T14:30:11.523Z,68.10
2019-04-09T14:32:41.972Z,77.37
2019-04-09T14:35:12.485Z,73.80
2019-04-09T14:37:43.862Z,66.23
2019-04-09T14:40:15.435Z,68.43
2019-04-09T14:42:46.612Z,60.33
2019-04-09T14:45:17.497Z,64.90
2019-04-09T14:47:48.696Z,50.13
2019-04-09T14:50:19.961Z,58.03
2019-04-09T14:52:57.365Z,57.03
2019-04-09T14:55:23.613Z,46.73
2019-04-09T14:57:54.179Z,50.30
2019-04-09T15:00:24.616Z,55.67
2019-04-09T15:02:55.210Z,56.33
2019-04-09T15:05:26.486Z,61.17
2019-04-09T15:07:57.874Z,55.33
2019-04-09T15:10:28.313Z,59.87
2019-04-09T15:12:58.796Z,48.50
2019-04-09T15:15:29.845Z,55.50
2019-04-09T15:18:00.692Z,55.63
2019-04-09T15:20:31.145Z,50.47
2019-04-09T15:23:01.695Z,59.30
2019-04-09T15:25:32.423Z,61.07
2019-04-09T15:28:02.906Z,59.90
2019-04-09T15:30:33.439Z,54.57
2019-04-09T15:33:04.450Z,56.27
2019-04-09T15:35:35.054Z,54.83
2019-04-09T15:38:06.616Z,53.63
2019-04-09T15:40:37.253Z,73.00
2019-04-09T15:43:07.824Z,61.37
2019-04-09T15:45:39.057Z,58.20
2019-04-09T15:48:09.860Z,69.80
2019-04-09T15:50:40.488Z,74.93
2019-04-09T15:53:23.804Z,64.63
2019-04-09T15:55:43.605Z,61.03
2019-04-09T15:58:14.471Z,63.50
2019-04-09T16:00:45.191Z,69.27
2019-04-09T16:03:24.381Z,69.90
2019-04-09T16:05:49.054Z,64.23
2019-04-09T16:08:20.328Z,58.50
2019-04-09T16:10:50.839Z,65.50
2019-04-09T16:13:22.097Z,63.83
2019-04-09T16:15:55.718Z,65.27
2019-04-09T16:18:25.491Z,65.93
2019-04-09T16:20:56.947Z,54.23
2019-04-09T16:23:30.206Z,55.30
2019-04-09T16:25:59.886Z,63.87
2019-04-09T16:28:30.654Z,71.87
2019-04-09T16:31:02.175Z,71.10
2019-04-09T16:33:32.815Z,65.37
2019-04-09T16:36:03.545Z,43.23
